Terminal Aerodrome Forecast
Issued by NWS Billings, MT

Home | Current Version | Previous Version | Text Only | Print | Product List | Glossary Off
Versions: 1 2 3 4 5 6 7 8 9 10 11 12 13 14 15 16 17 18 19 20 21 22 23 24 25 26 27

000
FTUS45 KBYZ 250332 AAA
TAFMLS
TAF AMD
KMLS 250332Z 2504/2524 36014KT P6SM SCT020
     FM250500 35015KT P6SM VCSH SCT012 OVC025
     FM251400 33012KT P6SM VCSH SCT025 OVC035
     FM252000 29010KT P6SM SCT080=

USA.gov is the U.S. government's official web portal to all federal, state and local government web resources and services.